sensor_id;sensor_type;location;lat;lon;timestamp;P1;durP1;ratioP1;P2;durP2;ratioP2
42662;SDS011;44330;51.360;6.686;2022-09-01T00:00:43;7.18;;;2.90;;
42662;SDS011;44330;51.360;6.686;2022-09-01T00:03:16;9.82;;;2.78;;
42662;SDS011;44330;51.360;6.686;2022-09-01T00:05:42;8.20;;;3.13;;
42662;SDS011;44330;51.360;6.686;2022-09-01T00:08:09;10.30;;;3.13;;
42662;SDS011;44330;51.360;6.686;2022-09-01T00:10:34;11.30;;;3.25;;
42662;SDS011;44330;51.360;6.686;2022-09-01T00:13:00;20.83;;;5.57;;
42662;SDS011;44330;51.360;6.686;2022-09-01T00:15:26;25.80;;;9.13;;
42662;SDS011;44330;51.360;6.686;2022-09-01T00:17:52;21.23;;;6.90;;
42662;SDS011;44330;51.360;6.686;2022-09-01T00:20:18;13.52;;;5.72;;
42662;SDS011;44330;51.360;6.686;2022-09-01T00:22:43;17.77;;;4.93;;
42662;SDS011;44330;51.360;6.686;2022-09-01T00:25:09;10.57;;;3.25;;
42662;SDS011;44330;51.360;6.686;2022-09-01T00:27:34;10.77;;;3.20;;
42662;SDS011;44330;51.360;6.686;2022-09-01T00:30:00;4.68;;;1.92;;
42662;SDS011;44330;51.360;6.686;2022-09-01T00:32:26;6.40;;;1.73;;
42662;SDS011;44330;51.360;6.686;2022-09-01T00:34:53;13.68;;;2.38;;
42662;SDS011;44330;51.360;6.686;2022-09-01T00:37:18;11.88;;;3.13;;
42662;SDS011;44330;51.360;6.686;2022-09-01T00:39:44;9.40;;;3.05;;
42662;SDS011;44330;51.360;6.686;2022-09-01T00:42:09;11.20;;;4.13;;
42662;SDS011;44330;51.360;6.686;2022-09-01T00:44:35;25.52;;;7.88;;
42662;SDS011;44330;51.360;6.686;2022-09-01T00:47:02;29.17;;;10.45;;
42662;SDS011;44330;51.360;6.686;2022-09-01T00:49:34;27.58;;;8.43;;
42662;SDS011;44330;51.360;6.686;2022-09-01T00:54:36;4.97;;;1.77;;
42662;SDS011;44330;51.360;6.686;2022-09-01T00:57:06;5.35;;;2.00;;
42662;SDS011;44330;51.360;6.686;2022-09-01T00:59:33;12.45;;;2.55;;
42662;SDS011;44330;51.360;6.686;2022-09-01T01:02:02;4.20;;;2.10;;
42662;SDS011;44330;51.360;6.686;2022-09-01T01:04:28;5.88;;;2.35;;
42662;SDS011;44330;51.360;6.686;2022-09-01T01:06:55;10.10;;;4.03;;
42662;SDS011;44330;51.360;6.686;2022-09-01T01:09:26;11.82;;;3.67;;
42662;SDS011;44330;51.360;6.686;2022-09-01T01:11:54;11.43;;;3.20;;
42662;SDS011;44330;51.360;6.686;2022-09-01T01:14:23;16.50;;;4.45;;
42662;SDS011;44330;51.360;6.686;2022-09-01T01:16:51;11.77;;;3.00;;
42662;SDS011;44330;51.360;6.686;2022-09-01T01:25:27;6.72;;;2.30;;
42662;SDS011;44330;51.360;6.686;2022-09-01T01:30:29;20.88;;;6.90;;
42662;SDS011;44330;51.360;6.686;2022-09-01T01:32:59;24.33;;;6.32;;
42662;SDS011;44330;51.360;6.686;2022-09-01T01:35:26;14.85;;;4.50;;
42662;SDS011;44330;51.360;6.686;2022-09-01T01:37:52;10.75;;;3.13;;
42662;SDS011;44330;51.360;6.686;2022-09-01T01:40:19;10.48;;;2.55;;
42662;SDS011;44330;51.360;6.686;2022-09-01T01:42:48;6.50;;;2.03;;
42662;SDS011;44330;51.360;6.686;2022-09-01T01:45:17;3.88;;;1.50;;
42662;SDS011;44330;51.360;6.686;2022-09-01T01:47:45;7.60;;;1.90;;
42662;SDS011;44330;51.360;6.686;2022-09-01T01:50:15;6.00;;;1.55;;
42662;SDS011;44330;51.360;6.686;2022-09-01T01:52:41;3.70;;;1.30;;
42662;SDS011;44330;51.360;6.686;2022-09-01T01:55:07;2.78;;;1.45;;
42662;SDS011;44330;51.360;6.686;2022-09-01T01:57:36;4.50;;;1.40;;
42662;SDS011;44330;51.360;6.686;2022-09-01T02:00:14;5.07;;;1.85;;
42662;SDS011;44330;51.360;6.686;2022-09-01T02:02:43;2.53;;;1.40;;
42662;SDS011;44330;51.360;6.686;2022-09-01T02:05:12;3.95;;;1.90;;
42662;SDS011;44330;51.360;6.686;2022-09-01T02:07:45;4.80;;;2.20;;
42662;SDS011;44330;51.360;6.686;2022-09-01T02:10:12;6.93;;;3.00;;
42662;SDS011;44330;51.360;6.686;2022-09-01T02:12:38;10.07;;;2.75;;
42662;SDS011;44330;51.360;6.686;2022-09-01T02:15:06;10.60;;;3.20;;
42662;SDS011;44330;51.360;6.686;2022-09-01T02:17:33;6.13;;;2.88;;
42662;SDS011;44330;51.360;6.686;2022-09-01T02:19:58;9.85;;;3.08;;
42662;SDS011;44330;51.360;6.686;2022-09-01T02:22:24;12.27;;;2.80;;
42662;SDS011;44330;51.360;6.686;2022-09-01T02:24:49;12.48;;;3.42;;
42662;SDS011;44330;51.360;6.686;2022-09-01T02:27:16;6.38;;;2.65;;
42662;SDS011;44330;51.360;6.686;2022-09-01T02:29:45;8.32;;;3.03;;
42662;SDS011;44330;51.360;6.686;2022-09-01T02:32:12;10.18;;;3.03;;
42662;SDS011;44330;51.360;6.686;2022-09-01T02:34:45;9.70;;;2.03;;
42662;SDS011;44330;51.360;6.686;2022-09-01T02:37:17;5.65;;;2.65;;
42662;SDS011;44330;51.360;6.686;2022-09-01T02:39:46;5.10;;;1.80;;
42662;SDS011;44330;51.360;6.686;2022-09-01T02:42:12;10.07;;;2.22;;
42662;SDS011;44330;51.360;6.686;2022-09-01T02:44:38;5.70;;;1.70;;
42662;SDS011;44330;51.360;6.686;2022-09-01T02:47:04;5.93;;;1.73;;
42662;SDS011;44330;51.360;6.686;2022-09-01T02:49:33;4.55;;;1.13;;
42662;SDS011;44330;51.360;6.686;2022-09-01T02:52:00;4.38;;;1.45;;
42662;SDS011;44330;51.360;6.686;2022-09-01T02:54:26;6.47;;;1.80;;
42662;SDS011;44330;51.360;6.686;2022-09-01T02:56:53;10.93;;;1.83;;
42662;SDS011;44330;51.360;6.686;2022-09-01T02:59:21;2.90;;;1.40;;
42662;SDS011;44330;51.360;6.686;2022-09-01T03:01:50;10.10;;;1.48;;
42662;SDS011;44330;51.360;6.686;2022-09-01T03:04:17;10.25;;;1.92;;
42662;SDS011;44330;51.360;6.686;2022-09-01T03:06:44;4.93;;;1.55;;
42662;SDS011;44330;51.360;6.686;2022-09-01T03:09:11;3.17;;;1.88;;
42662;SDS011;44330;51.360;6.686;2022-09-01T03:11:41;2.03;;;1.35;;
42662;SDS011;44330;51.360;6.686;2022-09-01T03:14:08;4.65;;;1.60;;
42662;SDS011;44330;51.360;6.686;2022-09-01T03:16:34;3.60;;;2.05;;
42662;SDS011;44330;51.360;6.686;2022-09-01T03:19:01;6.95;;;2.40;;
42662;SDS011;44330;51.360;6.686;2022-09-01T03:21:32;4.45;;;1.90;;
42662;SDS011;44330;51.360;6.686;2022-09-01T03:23:58;5.55;;;2.28;;
42662;SDS011;44330;51.360;6.686;2022-09-01T03:26:26;7.07;;;1.85;;
42662;SDS011;44330;51.360;6.686;2022-09-01T03:28:51;8.63;;;2.30;;
42662;SDS011;44330;51.360;6.686;2022-09-01T03:31:17;4.72;;;1.70;;
42662;SDS011;44330;51.360;6.686;2022-09-01T03:33:43;8.00;;;1.70;;
42662;SDS011;44330;51.360;6.686;2022-09-01T03:36:10;4.45;;;2.17;;
42662;SDS011;44330;51.360;6.686;2022-09-01T03:38:43;6.90;;;1.58;;
42662;SDS011;44330;51.360;6.686;2022-09-01T03:41:13;7.28;;;1.63;;
42662;SDS011;44330;51.360;6.686;2022-09-01T03:43:41;3.90;;;1.92;;
42662;SDS011;44330;51.360;6.686;2022-09-01T03:46:06;7.22;;;2.28;;
42662;SDS011;44330;51.360;6.686;2022-09-01T03:48:33;9.75;;;3.35;;
42662;SDS011;44330;51.360;6.686;2022-09-01T03:50:59;16.02;;;6.22;;
42662;SDS011;44330;51.360;6.686;2022-09-01T03:53:29;15.55;;;4.38;;
42662;SDS011;44330;51.360;6.686;2022-09-01T03:55:58;10.90;;;3.53;;
42662;SDS011;44330;51.360;6.686;2022-09-01T03:58:24;10.68;;;3.72;;
42662;SDS011;44330;51.360;6.686;2022-09-01T04:00:51;10.48;;;2.67;;
42662;SDS011;44330;51.360;6.686;2022-09-01T04:05:47;3.03;;;1.83;;
42662;SDS011;44330;51.360;6.686;2022-09-01T04:08:15;6.10;;;1.83;;
42662;SDS011;44330;51.360;6.686;2022-09-01T04:10:49;2.83;;;1.13;;
42662;SDS011;44330;51.360;6.686;2022-09-01T04:13:20;3.03;;;1.60;;
42662;SDS011;44330;51.360;6.686;2022-09-01T04:15:47;4.05;;;1.60;;
42662;SDS011;44330;51.360;6.686;2022-09-01T04:18:13;4.47;;;2.13;;
42662;SDS011;44330;51.360;6.686;2022-09-01T04:20:47;7.18;;;2.08;;
42662;SDS011;44330;51.360;6.686;2022-09-01T04:23:20;6.63;;;2.27;;
42662;SDS011;44330;51.360;6.686;2022-09-01T04:25:55;16.05;;;3.47;;
42662;SDS011;44330;51.360;6.686;2022-09-01T04:28:25;10.52;;;2.85;;
42662;SDS011;44330;51.360;6.686;2022-09-01T04:31:00;7.13;;;2.47;;
42662;SDS011;44330;51.360;6.686;2022-09-01T04:33:30;9.05;;;3.00;;
42662;SDS011;44330;51.360;6.686;2022-09-01T04:36:01;15.60;;;5.18;;
42662;SDS011;44330;51.360;6.686;2022-09-01T04:38:37;21.40;;;6.03;;
42662;SDS011;44330;51.360;6.686;2022-09-01T04:41:03;16.73;;;4.75;;
42662;SDS011;44330;51.360;6.686;2022-09-01T04:43:30;14.90;;;4.55;;
42662;SDS011;44330;51.360;6.686;2022-09-01T04:45:56;17.73;;;4.85;;
42662;SDS011;44330;51.360;6.686;2022-09-01T04:48:23;30.20;;;6.03;;
42662;SDS011;44330;51.360;6.686;2022-09-01T04:50:49;21.92;;;5.28;;
42662;SDS011;44330;51.360;6.686;2022-09-01T04:53:16;18.30;;;4.93;;
42662;SDS011;44330;51.360;6.686;2022-09-01T04:55:43;12.15;;;4.30;;
42662;SDS011;44330;51.360;6.686;2022-09-01T04:58:11;18.10;;;4.75;;
42662;SDS011;44330;51.360;6.686;2022-09-01T05:00:41;25.75;;;9.02;;
42662;SDS011;44330;51.360;6.686;2022-09-01T05:03:09;12.95;;;5.60;;
42662;SDS011;44330;51.360;6.686;2022-09-01T05:05:40;9.75;;;3.35;;
42662;SDS011;44330;51.360;6.686;2022-09-01T05:10:38;7.25;;;2.10;;
42662;SDS011;44330;51.360;6.686;2022-09-01T05:13:06;10.25;;;4.43;;
42662;SDS011;44330;51.360;6.686;2022-09-01T05:15:34;21.90;;;6.30;;
42662;SDS011;44330;51.360;6.686;2022-09-01T05:18:01;18.17;;;6.53;;
42662;SDS011;44330;51.360;6.686;2022-09-01T05:20:35;23.90;;;6.15;;
42662;SDS011;44330;51.360;6.686;2022-09-01T05:23:02;21.90;;;6.68;;
42662;SDS011;44330;51.360;6.686;2022-09-01T05:25:29;23.55;;;6.53;;
42662;SDS011;44330;51.360;6.686;2022-09-01T05:27:54;19.35;;;7.13;;
42662;SDS011;44330;51.360;6.686;2022-09-01T05:30:21;22.92;;;7.97;;
42662;SDS011;44330;51.360;6.686;2022-09-01T05:32:48;28.70;;;6.93;;
42662;SDS011;44330;51.360;6.686;2022-09-01T05:35:14;14.98;;;4.25;;
42662;SDS011;44330;51.360;6.686;2022-09-01T05:37:40;12.60;;;2.67;;
42662;SDS011;44330;51.360;6.686;2022-09-01T05:40:07;13.45;;;3.22;;
42662;SDS011;44330;51.360;6.686;2022-09-01T05:42:39;21.20;;;8.07;;
42662;SDS011;44330;51.360;6.686;2022-09-01T05:45:08;14.95;;;5.53;;
42662;SDS011;44330;51.360;6.686;2022-09-01T05:47:35;20.90;;;5.90;;
42662;SDS011;44330;51.360;6.686;2022-09-01T05:50:03;9.57;;;3.90;;
42662;SDS011;44330;51.360;6.686;2022-09-01T05:52:32;16.30;;;4.90;;
42662;SDS011;44330;51.360;6.686;2022-09-01T05:55:00;11.32;;;3.72;;
42662;SDS011;44330;51.360;6.686;2022-09-01T05:57:26;12.80;;;4.50;;
42662;SDS011;44330;51.360;6.686;2022-09-01T05:59:51;15.27;;;3.40;;
42662;SDS011;44330;51.360;6.686;2022-09-01T06:02:20;21.25;;;4.13;;
42662;SDS011;44330;51.360;6.686;2022-09-01T06:04:47;19.20;;;4.20;;
42662;SDS011;44330;51.360;6.686;2022-09-01T06:07:13;14.85;;;4.15;;
42662;SDS011;44330;51.360;6.686;2022-09-01T06:09:41;11.48;;;3.55;;
42662;SDS011;44330;51.360;6.686;2022-09-01T06:12:09;26.65;;;5.97;;
42662;SDS011;44330;51.360;6.686;2022-09-01T06:14:41;34.38;;;6.53;;
42662;SDS011;44330;51.360;6.686;2022-09-01T06:17:08;27.15;;;7.40;;
42662;SDS011;44330;51.360;6.686;2022-09-01T06:19:35;29.13;;;10.82;;
42662;SDS011;44330;51.360;6.686;2022-09-01T06:22:01;49.05;;;18.92;;
42662;SDS011;44330;51.360;6.686;2022-09-01T06:24:28;49.03;;;17.85;;
42662;SDS011;44330;51.360;6.686;2022-09-01T06:26:53;38.50;;;14.70;;
42662;SDS011;44330;51.360;6.686;2022-09-01T06:29:19;25.75;;;9.32;;
42662;SDS011;44330;51.360;6.686;2022-09-01T06:31:45;30.00;;;6.40;;
42662;SDS011;44330;51.360;6.686;2022-09-01T06:34:15;9.07;;;2.70;;
42662;SDS011;44330;51.360;6.686;2022-09-01T06:36:42;9.70;;;3.58;;
42662;SDS011;44330;51.360;6.686;2022-09-01T06:39:09;19.80;;;5.32;;
42662;SDS011;44330;51.360;6.686;2022-09-01T06:41:43;10.18;;;3.70;;
42662;SDS011;44330;51.360;6.686;2022-09-01T06:44:15;10.98;;;3.13;;
42662;SDS011;44330;51.360;6.686;2022-09-01T06:46:46;12.27;;;3.72;;
42662;SDS011;44330;51.360;6.686;2022-09-01T06:49:12;15.93;;;2.55;;
42662;SDS011;44330;51.360;6.686;2022-09-01T06:51:38;12.20;;;3.28;;
42662;SDS011;44330;51.360;6.686;2022-09-01T06:54:03;12.40;;;4.38;;
42662;SDS011;44330;51.360;6.686;2022-09-01T06:56:30;17.73;;;7.68;;
42662;SDS011;44330;51.360;6.686;2022-09-01T06:58:58;11.57;;;3.45;;
42662;SDS011;44330;51.360;6.686;2022-09-01T07:01:25;12.18;;;3.13;;
42662;SDS011;44330;51.360;6.686;2022-09-01T07:03:51;16.90;;;3.75;;
42662;SDS011;44330;51.360;6.686;2022-09-01T07:06:20;12.20;;;2.75;;
42662;SDS011;44330;51.360;6.686;2022-09-01T07:08:51;12.23;;;2.92;;
42662;SDS011;44330;51.360;6.686;2022-09-01T07:11:22;21.95;;;3.05;;
42662;SDS011;44330;51.360;6.686;2022-09-01T07:13:53;5.55;;;1.70;;
42662;SDS011;44330;51.360;6.686;2022-09-01T07:16:23;9.23;;;1.83;;
42662;SDS011;44330;51.360;6.686;2022-09-01T07:18:50;12.65;;;2.15;;
42662;SDS011;44330;51.360;6.686;2022-09-01T07:21:18;9.57;;;2.13;;
42662;SDS011;44330;51.360;6.686;2022-09-01T07:23:45;9.77;;;2.17;;
42662;SDS011;44330;51.360;6.686;2022-09-01T07:26:11;7.50;;;2.40;;
42662;SDS011;44330;51.360;6.686;2022-09-01T07:28:42;17.48;;;7.40;;
42662;SDS011;44330;51.360;6.686;2022-09-01T07:31:15;10.43;;;3.55;;
42662;SDS011;44330;51.360;6.686;2022-09-01T07:33:44;2.55;;;1.27;;
42662;SDS011;44330;51.360;6.686;2022-09-01T07:36:15;2.88;;;1.40;;
42662;SDS011;44330;51.360;6.686;2022-09-01T07:38:43;4.45;;;1.10;;
42662;SDS011;44330;51.360;6.686;2022-09-01T07:41:10;4.90;;;1.33;;
42662;SDS011;44330;51.360;6.686;2022-09-01T07:43:39;10.40;;;1.20;;
42662;SDS011;44330;51.360;6.686;2022-09-01T07:46:08;4.03;;;1.08;;
42662;SDS011;44330;51.360;6.686;2022-09-01T07:48:35;8.02;;;1.15;;
42662;SDS011;44330;51.360;6.686;2022-09-01T07:51:01;6.13;;;2.00;;
42662;SDS011;44330;51.360;6.686;2022-09-01T07:53:28;4.38;;;2.03;;
42662;SDS011;44330;51.360;6.686;2022-09-01T07:55:57;6.53;;;1.52;;
42662;SDS011;44330;51.360;6.686;2022-09-01T08:00:52;7.45;;;1.30;;
42662;SDS011;44330;51.360;6.686;2022-09-01T08:03:20;4.47;;;1.35;;
42662;SDS011;44330;51.360;6.686;2022-09-01T08:05:48;1.88;;;0.98;;
42662;SDS011;44330;51.360;6.686;2022-09-01T08:08:18;8.38;;;1.50;;
42662;SDS011;44330;51.360;6.686;2022-09-01T08:10:44;12.75;;;1.23;;
42662;SDS011;44330;51.360;6.686;2022-09-01T08:13:10;2.83;;;1.15;;
42662;SDS011;44330;51.360;6.686;2022-09-01T08:15:37;15.98;;;1.73;;
42662;SDS011;44330;51.360;6.686;2022-09-01T08:18:03;2.80;;;1.48;;
42662;SDS011;44330;51.360;6.686;2022-09-01T08:20:29;2.38;;;1.50;;
42662;SDS011;44330;51.360;6.686;2022-09-01T08:22:55;7.35;;;1.30;;
42662;SDS011;44330;51.360;6.686;2022-09-01T08:25:21;6.13;;;1.33;;
42662;SDS011;44330;51.360;6.686;2022-09-01T08:27:47;2.03;;;1.17;;
42662;SDS011;44330;51.360;6.686;2022-09-01T08:30:13;4.20;;;1.00;;
42662;SDS011;44330;51.360;6.686;2022-09-01T08:32:38;5.72;;;1.15;;
42662;SDS011;44330;51.360;6.686;2022-09-01T08:35:06;7.20;;;1.73;;
42662;SDS011;44330;51.360;6.686;2022-09-01T08:37:37;4.53;;;1.17;;
42662;SDS011;44330;51.360;6.686;2022-09-01T08:40:05;5.25;;;1.23;;
42662;SDS011;44330;51.360;6.686;2022-09-01T08:45:22;4.07;;;0.90;;
42662;SDS011;44330;51.360;6.686;2022-09-01T08:47:56;9.27;;;1.45;;
42662;SDS011;44330;51.360;6.686;2022-09-01T08:50:26;3.92;;;1.60;;
42662;SDS011;44330;51.360;6.686;2022-09-01T08:52:57;5.45;;;1.10;;
42662;SDS011;44330;51.360;6.686;2022-09-01T08:55:34;4.40;;;1.20;;
42662;SDS011;44330;51.360;6.686;2022-09-01T08:58:04;5.45;;;1.10;;
42662;SDS011;44330;51.360;6.686;2022-09-01T09:00:32;5.95;;;1.13;;
42662;SDS011;44330;51.360;6.686;2022-09-01T09:05:41;2.35;;;1.45;;
42662;SDS011;44330;51.360;6.686;2022-09-01T09:13:44;9.63;;;2.53;;
42662;SDS011;44330;51.360;6.686;2022-09-01T09:16:28;7.38;;;2.67;;
42662;SDS011;44330;51.360;6.686;2022-09-01T09:19:08;7.72;;;3.20;;
42662;SDS011;44330;51.360;6.686;2022-09-01T09:21:57;6.78;;;2.50;;
42662;SDS011;44330;51.360;6.686;2022-09-01T09:27:22;10.93;;;2.40;;
42662;SDS011;44330;51.360;6.686;2022-09-01T09:29:50;3.60;;;1.30;;
42662;SDS011;44330;51.360;6.686;2022-09-01T09:32:17;1.27;;;0.88;;
42662;SDS011;44330;51.360;6.686;2022-09-01T09:34:44;4.93;;;1.17;;
42662;SDS011;44330;51.360;6.686;2022-09-01T09:40:07;4.18;;;1.10;;
42662;SDS011;44330;51.360;6.686;2022-09-01T09:42:42;7.40;;;1.40;;
42662;SDS011;44330;51.360;6.686;2022-09-01T09:45:26;4.20;;;1.25;;
42662;SDS011;44330;51.360;6.686;2022-09-01T09:47:56;4.95;;;1.75;;
42662;SDS011;44330;51.360;6.686;2022-09-01T09:55:49;2.33;;;0.90;;
42662;SDS011;44330;51.360;6.686;2022-09-01T09:58:20;3.42;;;1.02;;
42662;SDS011;44330;51.360;6.686;2022-09-01T10:00:57;1.60;;;0.98;;
42662;SDS011;44330;51.360;6.686;2022-09-01T10:03:32;2.13;;;0.90;;
42662;SDS011;44330;51.360;6.686;2022-09-01T10:06:10;5.57;;;1.15;;
42662;SDS011;44330;51.360;6.686;2022-09-01T10:08:40;4.88;;;0.80;;
42662;SDS011;44330;51.360;6.686;2022-09-01T10:11:24;6.47;;;2.90;;
42662;SDS011;44330;51.360;6.686;2022-09-01T10:13:53;12.32;;;4.00;;
42662;SDS011;44330;51.360;6.686;2022-09-01T10:16:24;5.03;;;1.08;;
42662;SDS011;44330;51.360;6.686;2022-09-01T10:18:54;2.60;;;1.05;;
42662;SDS011;44330;51.360;6.686;2022-09-01T10:21:26;15.02;;;1.30;;
42662;SDS011;44330;51.360;6.686;2022-09-01T10:23:57;2.67;;;0.75;;
42662;SDS011;44330;51.360;6.686;2022-09-01T10:26:29;2.92;;;0.90;;
42662;SDS011;44330;51.360;6.686;2022-09-01T10:31:33;3.20;;;1.20;;
42662;SDS011;44330;51.360;6.686;2022-09-01T10:34:01;2.10;;;0.70;;
42662;SDS011;44330;51.360;6.686;2022-09-01T10:36:29;4.50;;;0.90;;
42662;SDS011;44330;51.360;6.686;2022-09-01T10:38:55;1.75;;;1.00;;
42662;SDS011;44330;51.360;6.686;2022-09-01T10:44:25;2.90;;;1.00;;
42662;SDS011;44330;51.360;6.686;2022-09-01T10:46:57;5.53;;;0.95;;
42662;SDS011;44330;51.360;6.686;2022-09-01T10:52:11;5.00;;;1.10;;
42662;SDS011;44330;51.360;6.686;2022-09-01T10:55:09;1.17;;;1.05;;
42662;SDS011;44330;51.360;6.686;2022-09-01T11:08:39;1.67;;;1.20;;
42662;SDS011;44330;51.360;6.686;2022-09-01T11:11:28;6.60;;;1.10;;
42662;SDS011;44330;51.360;6.686;2022-09-01T11:14:22;4.60;;;1.23;;
42662;SDS011;44330;51.360;6.686;2022-09-01T11:19:44;2.47;;;1.10;;
42662;SDS011;44330;51.360;6.686;2022-09-01T11:25:09;2.88;;;1.30;;
42662;SDS011;44330;51.360;6.686;2022-09-01T11:30:32;5.55;;;1.10;;
42662;SDS011;44330;51.360;6.686;2022-09-01T11:35:44;4.75;;;1.00;;
42662;SDS011;44330;51.360;6.686;2022-09-01T11:38:11;2.85;;;1.33;;
42662;SDS011;44330;51.360;6.686;2022-09-01T11:40:40;5.88;;;1.30;;
42662;SDS011;44330;51.360;6.686;2022-09-01T11:43:08;6.10;;;1.70;;
42662;SDS011;44330;51.360;6.686;2022-09-01T11:45:48;3.17;;;1.27;;
42662;SDS011;44330;51.360;6.686;2022-09-01T11:48:19;4.55;;;1.00;;
42662;SDS011;44330;51.360;6.686;2022-09-01T11:50:45;1.48;;;1.13;;
42662;SDS011;44330;51.360;6.686;2022-09-01T11:53:23;3.72;;;0.95;;
42662;SDS011;44330;51.360;6.686;2022-09-01T11:55:51;5.18;;;1.20;;
42662;SDS011;44330;51.360;6.686;2022-09-01T12:00:55;7.50;;;1.35;;
42662;SDS011;44330;51.360;6.686;2022-09-01T12:03:34;7.78;;;1.60;;
42662;SDS011;44330;51.360;6.686;2022-09-01T12:06:02;4.25;;;1.15;;
42662;SDS011;44330;51.360;6.686;2022-09-01T12:08:30;8.93;;;1.80;;
42662;SDS011;44330;51.360;6.686;2022-09-01T12:11:03;7.63;;;2.03;;
42662;SDS011;44330;51.360;6.686;2022-09-01T12:13:29;2.67;;;1.48;;
42662;SDS011;44330;51.360;6.686;2022-09-01T12:15:56;9.27;;;1.98;;
42662;SDS011;44330;51.360;6.686;2022-09-01T12:18:25;11.20;;;2.97;;
42662;SDS011;44330;51.360;6.686;2022-09-01T12:20:54;5.60;;;2.95;;
42662;SDS011;44330;51.360;6.686;2022-09-01T12:23:25;7.88;;;2.35;;
42662;SDS011;44330;51.360;6.686;2022-09-01T12:25:55;4.40;;;1.90;;
42662;SDS011;44330;51.360;6.686;2022-09-01T12:28:24;4.47;;;1.30;;
42662;SDS011;44330;51.360;6.686;2022-09-01T12:30:53;4.10;;;1.27;;
42662;SDS011;44330;51.360;6.686;2022-09-01T12:33:19;10.80;;;2.38;;
42662;SDS011;44330;51.360;6.686;2022-09-01T12:35:45;6.82;;;1.98;;
42662;SDS011;44330;51.360;6.686;2022-09-01T12:38:15;2.95;;;1.20;;
42662;SDS011;44330;51.360;6.686;2022-09-01T12:40:46;3.17;;;1.30;;
42662;SDS011;44330;51.360;6.686;2022-09-01T12:43:30;5.10;;;2.05;;
42662;SDS011;44330;51.360;6.686;2022-09-01T12:46:04;3.38;;;1.10;;
42662;SDS011;44330;51.360;6.686;2022-09-01T12:48:35;5.20;;;1.55;;
42662;SDS011;44330;51.360;6.686;2022-09-01T12:51:06;4.45;;;1.40;;
42662;SDS011;44330;51.360;6.686;2022-09-01T12:53:53;7.03;;;1.73;;
42662;SDS011;44330;51.360;6.686;2022-09-01T12:56:34;7.72;;;2.28;;
42662;SDS011;44330;51.360;6.686;2022-09-01T12:59:07;5.20;;;2.20;;
42662;SDS011;44330;51.360;6.686;2022-09-01T13:01:36;3.08;;;2.00;;
42662;SDS011;44330;51.360;6.686;2022-09-01T13:06:51;4.07;;;1.08;;
42662;SDS011;44330;51.360;6.686;2022-09-01T13:09:18;5.90;;;1.20;;
42662;SDS011;44330;51.360;6.686;2022-09-01T13:11:44;3.80;;;1.20;;
42662;SDS011;44330;51.360;6.686;2022-09-01T13:14:16;4.20;;;1.15;;
42662;SDS011;44330;51.360;6.686;2022-09-01T13:16:42;5.70;;;1.88;;
42662;SDS011;44330;51.360;6.686;2022-09-01T13:19:08;2.15;;;1.70;;
42662;SDS011;44330;51.360;6.686;2022-09-01T13:21:34;6.50;;;2.28;;
42662;SDS011;44330;51.360;6.686;2022-09-01T13:24:02;2.50;;;1.20;;
42662;SDS011;44330;51.360;6.686;2022-09-01T13:26:30;4.18;;;1.55;;
42662;SDS011;44330;51.360;6.686;2022-09-01T13:28:56;4.70;;;1.50;;
42662;SDS011;44330;51.360;6.686;2022-09-01T13:31:23;1.52;;;1.23;;
42662;SDS011;44330;51.360;6.686;2022-09-01T13:33:49;9.35;;;1.95;;
42662;SDS011;44330;51.360;6.686;2022-09-01T13:36:15;4.35;;;1.55;;
42662;SDS011;44330;51.360;6.686;2022-09-01T13:38:43;3.28;;;1.20;;
42662;SDS011;44330;51.360;6.686;2022-09-01T13:41:09;3.28;;;1.20;;
42662;SDS011;44330;51.360;6.686;2022-09-01T13:43:35;1.55;;;1.23;;
42662;SDS011;44330;51.360;6.686;2022-09-01T13:46:01;4.65;;;1.70;;
42662;SDS011;44330;51.360;6.686;2022-09-01T13:48:27;7.80;;;1.50;;
42662;SDS011;44330;51.360;6.686;2022-09-01T13:50:53;3.13;;;1.52;;
42662;SDS011;44330;51.360;6.686;2022-09-01T13:53:19;3.10;;;1.30;;
42662;SDS011;44330;51.360;6.686;2022-09-01T13:55:45;7.30;;;1.25;;
42662;SDS011;44330;51.360;6.686;2022-09-01T13:58:11;4.53;;;1.50;;
42662;SDS011;44330;51.360;6.686;2022-09-01T14:00:40;8.65;;;1.48;;
42662;SDS011;44330;51.360;6.686;2022-09-01T14:03:14;3.25;;;1.25;;
42662;SDS011;44330;51.360;6.686;2022-09-01T14:05:43;10.90;;;2.65;;
42662;SDS011;44330;51.360;6.686;2022-09-01T14:08:10;10.15;;;2.78;;
42662;SDS011;44330;51.360;6.686;2022-09-01T14:10:39;3.90;;;1.52;;
42662;SDS011;44330;51.360;6.686;2022-09-01T14:13:09;7.20;;;1.83;;
42662;SDS011;44330;51.360;6.686;2022-09-01T14:15:36;5.97;;;2.25;;
42662;SDS011;44330;51.360;6.686;2022-09-01T14:18:02;4.13;;;1.30;;
42662;SDS011;44330;51.360;6.686;2022-09-01T14:20:30;1.65;;;1.08;;
42662;SDS011;44330;51.360;6.686;2022-09-01T14:22:59;4.80;;;1.30;;
42662;SDS011;44330;51.360;6.686;2022-09-01T14:25:26;4.05;;;1.20;;
42662;SDS011;44330;51.360;6.686;2022-09-01T14:27:53;6.40;;;1.20;;
42662;SDS011;44330;51.360;6.686;2022-09-01T14:30:21;2.30;;;1.25;;
42662;SDS011;44330;51.360;6.686;2022-09-01T14:32:49;6.40;;;1.27;;
42662;SDS011;44330;51.360;6.686;2022-09-01T14:35:16;3.80;;;1.10;;
42662;SDS011;44330;51.360;6.686;2022-09-01T14:37:44;5.88;;;1.70;;
42662;SDS011;44330;51.360;6.686;2022-09-01T14:40:11;3.45;;;1.88;;
42662;SDS011;44330;51.360;6.686;2022-09-01T14:42:39;8.52;;;2.97;;
42662;SDS011;44330;51.360;6.686;2022-09-01T14:45:17;7.72;;;2.33;;
42662;SDS011;44330;51.360;6.686;2022-09-01T14:47:45;2.85;;;1.50;;
42662;SDS011;44330;51.360;6.686;2022-09-01T14:50:11;3.05;;;1.23;;
42662;SDS011;44330;51.360;6.686;2022-09-01T14:52:37;4.75;;;1.23;;
42662;SDS011;44330;51.360;6.686;2022-09-01T14:55:03;3.80;;;1.23;;
42662;SDS011;44330;51.360;6.686;2022-09-01T14:57:29;2.97;;;1.05;;
42662;SDS011;44330;51.360;6.686;2022-09-01T14:59:56;4.50;;;1.20;;
42662;SDS011;44330;51.360;6.686;2022-09-01T15:02:22;5.65;;;1.15;;
42662;SDS011;44330;51.360;6.686;2022-09-01T15:04:49;4.70;;;1.65;;
42662;SDS011;44330;51.360;6.686;2022-09-01T15:07:15;8.55;;;1.60;;
42662;SDS011;44330;51.360;6.686;2022-09-01T15:09:40;8.07;;;2.10;;
42662;SDS011;44330;51.360;6.686;2022-09-01T15:12:06;7.28;;;2.15;;
42662;SDS011;44330;51.360;6.686;2022-09-01T15:14:33;4.88;;;1.38;;
42662;SDS011;44330;51.360;6.686;2022-09-01T15:16:59;4.32;;;1.05;;
42662;SDS011;44330;51.360;6.686;2022-09-01T15:19:25;6.63;;;1.55;;
42662;SDS011;44330;51.360;6.686;2022-09-01T15:21:50;16.75;;;3.60;;
42662;SDS011;44330;51.360;6.686;2022-09-01T15:24:16;8.93;;;4.32;;
42662;SDS011;44330;51.360;6.686;2022-09-01T15:26:42;19.77;;;4.80;;
42662;SDS011;44330;51.360;6.686;2022-09-01T15:29:11;4.07;;;1.95;;
42662;SDS011;44330;51.360;6.686;2022-09-01T15:31:39;3.88;;;1.90;;
42662;SDS011;44330;51.360;6.686;2022-09-01T15:34:05;4.00;;;1.20;;
42662;SDS011;44330;51.360;6.686;2022-09-01T15:36:33;3.10;;;1.10;;
42662;SDS011;44330;51.360;6.686;2022-09-01T15:39:00;4.28;;;1.73;;
42662;SDS011;44330;51.360;6.686;2022-09-01T15:41:27;4.10;;;1.70;;
42662;SDS011;44330;51.360;6.686;2022-09-01T15:43:54;8.30;;;2.20;;
42662;SDS011;44330;51.360;6.686;2022-09-01T15:46:21;2.45;;;1.33;;
42662;SDS011;44330;51.360;6.686;2022-09-01T15:48:47;9.07;;;1.60;;
42662;SDS011;44330;51.360;6.686;2022-09-01T15:53:50;1.73;;;1.25;;
42662;SDS011;44330;51.360;6.686;2022-09-01T15:56:18;4.72;;;1.20;;
42662;SDS011;44330;51.360;6.686;2022-09-01T15:58:44;3.13;;;1.40;;
42662;SDS011;44330;51.360;6.686;2022-09-01T16:01:10;3.00;;;1.27;;
42662;SDS011;44330;51.360;6.686;2022-09-01T16:03:36;4.43;;;0.90;;
42662;SDS011;44330;51.360;6.686;2022-09-01T16:06:03;8.30;;;1.10;;
42662;SDS011;44330;51.360;6.686;2022-09-01T16:08:29;2.30;;;1.05;;
42662;SDS011;44330;51.360;6.686;2022-09-01T16:10:54;5.82;;;1.50;;